Time;durP1;ratioP1;P1;durP2;ratioP2;P2;SDS_P1;SDS_P2;PMS_P1;PMS_P2;Temp;Humidity;BMP_temperature;BMP_pressure;BME280_temperature;BME280_humidity;BME280_pressure;Samples;Min_cycle;Max_cycle;Signal;HPM_P1;HPM_P2
2021/09/15 00:01:11;;;;;;;15.15;10.68;;;;;;;18.69;72.23;101421.66;1846200;77;21018;-82
2021/09/15 00:03:38;;;;;;;22.55;10.38;;;;;;;18.68;72.26;101423.92;1846141;77;21401;-83
2021/09/15 00:06:06;;;;;;;14.95;10.13;;;;;;;18.66;72.37;101430.66;1846370;77;21132;-82
2021/09/15 00:08:34;;;;;;;15.32;10.23;;;;;;;18.62;72.43;101429.73;1846094;77;21010;-82
2021/09/15 00:11:03;;;;;;;18.45;10.95;;;;;;;18.61;72.51;101437.25;1846343;77;20963;-84
2021/09/15 00:13:32;;;;;;;21.25;11.80;;;;;;;18.60;72.68;101436.45;1845994;77;21509;-81
2021/09/15 00:16:00;;;;;;;19.77;11.25;;;;;;;18.61;72.80;101438.09;1848376;77;20924;-81
2021/09/15 00:18:27;;;;;;;24.02;12.90;;;;;;;18.60;72.77;101437.77;1854017;77;21051;-81
2021/09/15 00:20:56;;;;;;;20.60;12.68;;;;;;;18.57;72.85;101434.06;1853769;77;20916;-82
2021/09/15 00:23:23;;;;;;;20.97;11.63;;;;;;;18.56;72.96;101436.36;1853865;77;20876;-82
2021/09/15 00:25:49;;;;;;;22.55;10.75;;;;;;;18.56;73.09;101439.47;1853954;77;20963;-83
2021/09/15 00:28:16;;;;;;;20.88;10.58;;;;;;;18.55;73.11;101441.26;1853989;77;21008;-83
2021/09/15 00:30:43;;;;;;;16.75;11.18;;;;;;;18.55;73.14;101435.16;1854131;77;21555;-82
2021/09/15 00:33:11;;;;;;;21.95;11.12;;;;;;;18.55;73.15;101433.84;1823213;77;20935;-83
2021/09/15 00:35:38;;;;;;;16.93;10.80;;;;;;;18.52;73.25;101435.44;1823095;77;21434;-83
2021/09/15 00:38:05;;;;;;;14.18;10.20;;;;;;;18.50;73.25;101442.16;1853906;77;20923;-82
2021/09/15 00:40:33;;;;;;;13.48;10.88;;;;;;;18.49;73.21;101439.13;1853658;77;21477;-83
2021/09/15 00:43:01;;;;;;;11.03;8.95;;;;;;;18.46;73.22;101438.92;1853962;77;21093;-83
2021/09/15 00:45:28;;;;;;;14.30;10.08;;;;;;;18.45;73.28;101435.09;1853941;77;20946;-83
2021/09/15 00:47:56;;;;;;;14.05;10.00;;;;;;;18.44;73.31;101436.09;1854056;77;21469;-84
2021/09/15 00:50:24;;;;;;;14.35;10.10;;;;;;;18.43;73.33;101437.05;1854192;77;21553;-83
2021/09/15 00:52:52;;;;;;;15.45;9.33;;;;;;;18.39;73.38;101436.47;1854186;77;20962;-83
2021/09/15 00:55:18;;;;;;;15.03;9.23;;;;;;;18.37;73.50;101442.83;1823379;77;21109;-83
2021/09/15 00:57:46;;;;;;;14.50;9.15;;;;;;;18.34;73.59;101435.21;1854106;77;20903;-82
2021/09/15 01:00:16;;;;;;;18.45;9.78;;;;;;;18.32;73.61;101438.44;1853968;77;20926;-83
2021/09/15 01:02:43;;;;;;;15.95;10.38;;;;;;;18.31;73.63;101440.25;1854020;77;20966;-82
2021/09/15 01:05:11;;;;;;;15.00;10.38;;;;;;;18.29;73.72;101434.76;1854058;77;20899;-82
2021/09/15 01:07:39;;;;;;;17.85;10.25;;;;;;;18.27;73.83;101437.53;1853781;77;21195;-80
2021/09/15 01:10:08;;;;;;;13.88;9.78;;;;;;;18.25;73.92;101442.07;1797086;77;21496;-81
2021/09/15 01:12:38;;;;;;;11.48;9.55;;;;;;;18.23;74.14;101437.91;1805427;77;21391;-81
2021/09/15 01:15:26;;;;;;;12.98;9.20;;;;;;;18.22;74.16;101443.64;1729400;81;21595;-82
2021/09/15 01:17:59;;;;;;;13.40;10.40;;;;;;;18.21;74.24;101448.57;1726053;81;21044;-82
2021/09/15 01:20:39;;;;;;;14.50;10.28;;;;;;;18.19;74.20;101448.33;1753513;77;20911;-82
2021/09/15 01:23:12;;;;;;;15.53;10.38;;;;;;;18.16;73.77;101445.97;1798928;77;20962;-83
2021/09/15 01:25:57;;;;;;;15.80;11.33;;;;;;;18.12;73.71;101445.42;1854280;77;20950;-84
2021/09/15 01:28:28;;;;;;;18.62;10.50;;;;;;;18.08;73.64;101445.33;1797591;77;20935;-84
2021/09/15 01:30:58;;;;;;;17.15;10.85;;;;;;;18.05;73.66;101452.16;1852922;77;20824;-84
2021/09/15 01:33:28;;;;;;;14.43;11.28;;;;;;;18.02;73.70;101448.95;1854020;77;20911;-85
2021/09/15 01:35:56;;;;;;;13.08;11.03;;;;;;;17.97;73.73;101451.95;1823268;77;20903;-84
2021/09/15 01:38:23;;;;;;;14.68;10.58;;;;;;;17.92;73.92;101452.36;1853981;77;21738;-82
2021/09/15 01:40:51;;;;;;;15.72;10.95;;;;;;;17.88;74.09;101446.16;1853778;77;20927;-82
2021/09/15 01:43:18;;;;;;;17.42;10.18;;;;;;;17.87;74.30;101447.95;1823045;77;21073;-80
2021/09/15 01:45:45;;;;;;;17.00;9.98;;;;;;;17.88;74.34;101453.56;1850955;77;21888;-80
2021/09/15 01:48:20;;;;;;;12.37;10.30;;;;;;;17.87;74.41;101447.95;1853930;77;21410;-81
2021/09/15 01:50:48;;;;;;;16.77;11.48;;;;;;;17.89;74.41;101447.84;1854249;77;21005;-84
2021/09/15 01:53:17;;;;;;;14.40;11.57;;;;;;;17.89;74.38;101449.16;1853918;77;21426;-83
2021/09/15 01:55:43;;;;;;;14.98;11.35;;;;;;;17.86;74.53;101446.78;1854038;77;21072;-82
2021/09/15 01:58:16;;;;;;;17.73;11.95;;;;;;;17.84;74.62;101443.44;1849866;77;21454;-83
2021/09/15 02:00:43;;;;;;;18.50;12.20;;;;;;;17.85;74.62;101443.33;1853910;77;21537;-83
2021/09/15 02:03:13;;;;;;;15.95;12.07;;;;;;;17.88;74.58;101442.23;1849741;77;20934;-84
2021/09/15 02:05:42;;;;;;;17.20;11.85;;;;;;;17.88;74.51;101441.75;1852589;77;20871;-83
2021/09/15 02:08:16;;;;;;;24.00;13.72;;;;;;;17.88;74.63;101440.44;1849133;77;20938;-83
2021/09/15 02:10:48;;;;;;;20.52;12.37;;;;;;;17.87;74.64;101435.30;1852796;77;21497;-82
2021/09/15 02:13:16;;;;;;;13.80;10.80;;;;;;;17.86;74.73;101441.06;1854037;77;21030;-82
2021/09/15 02:15:44;;;;;;;17.85;12.70;;;;;;;17.88;74.83;101436.50;1853976;77;20911;-81
2021/09/15 02:18:10;;;;;;;20.60;12.05;;;;;;;17.88;74.93;101429.94;1846830;77;21038;-81
2021/09/15 02:20:54;;;;;;;18.95;12.73;;;;;;;17.91;75.02;101435.41;1751265;82;21021;-82
2021/09/15 02:23:27;;;;;;;18.67;13.13;;;;;;;17.92;75.06;101436.59;1818564;77;21458;-82
2021/09/15 02:25:55;;;;;;;20.08;12.33;;;;;;;17.92;75.01;101435.77;1845339;77;20860;-84
2021/09/15 02:28:36;;;;;;;23.95;13.05;;;;;;;17.91;75.02;101439.34;1845318;77;21021;-84
2021/09/15 02:31:21;;;;;;;19.25;13.55;;;;;;;17.90;75.09;101446.38;1846132;77;20994;-82
2021/09/15 02:33:59;;;;;;;17.37;13.28;;;;;;;17.91;75.20;101438.03;1782523;80;21477;-81
2021/09/15 02:36:28;;;;;;;29.40;12.93;;;;;;;17.93;75.41;101442.69;1845827;77;21076;-81
2021/09/15 02:39:04;;;;;;;19.07;13.38;;;;;;;17.91;75.32;101441.48;1845463;77;20955;-81
2021/09/15 02:41:35;;;;;;;20.48;12.85;;;;;;;17.90;75.50;101442.95;1842294;77;20977;-81
2021/09/15 02:44:05;;;;;;;17.37;12.05;;;;;;;17.86;75.62;101442.38;1846200;77;21022;-82
2021/09/15 02:46:42;;;;;;;18.95;12.53;;;;;;;17.85;75.69;101439.38;1841605;77;20868;-82
2021/09/15 02:49:13;;;;;;;17.85;12.85;;;;;;;17.84;75.84;101443.44;1845260;77;21134;-81
2021/09/15 02:51:43;;;;;;;18.27;13.85;;;;;;;17.82;75.90;101442.74;1833721;77;21560;-81
2021/09/15 02:54:11;;;;;;;16.95;13.55;;;;;;;17.80;75.77;101446.83;1844890;77;20983;-81
2021/09/15 02:56:42;;;;;;;20.97;12.63;;;;;;;17.80;75.63;101449.93;1845350;77;20938;-80
2021/09/15 02:59:14;;;;;;;14.13;11.48;;;;;;;17.78;75.67;101446.58;1845160;77;20903;-80
2021/09/15 03:01:46;;;;;;;21.73;14.00;;;;;;;17.77;75.81;101458.06;1844812;77;21128;-80
2021/09/15 03:04:14;;;;;;;20.75;12.70;;;;;;;17.76;75.88;101452.45;1845230;77;21501;-80
2021/09/15 03:06:46;;;;;;;18.37;12.27;;;;;;;17.75;75.92;101456.86;1843168;77;21463;-80
2021/09/15 03:09:15;;;;;;;17.05;12.90;;;;;;;17.75;75.86;101456.03;1845897;77;21127;-80
2021/09/15 03:11:43;;;;;;;16.25;12.47;;;;;;;17.72;75.83;101453.66;1846097;77;21474;-80
2021/09/15 03:14:12;;;;;;;16.27;12.80;;;;;;;17.69;75.88;101453.91;1846430;77;20959;-80
2021/09/15 03:16:39;;;;;;;18.82;13.32;;;;;;;17.66;76.01;101452.86;1847445;77;20851;-80
2021/09/15 03:19:10;;;;;;;16.77;12.13;;;;;;;17.64;75.98;101456.94;1854009;77;20911;-81
2021/09/15 03:21:44;;;;;;;18.02;12.50;;;;;;;17.62;75.76;101463.25;1854009;77;20898;-80
2021/09/15 03:24:13;;;;;;;15.60;11.80;;;;;;;17.59;75.62;101470.91;1854044;77;20981;-81
2021/09/15 03:26:40;;;;;;;19.42;12.20;;;;;;;17.54;75.47;101477.00;1823289;77;21761;-81
2021/09/15 03:29:08;;;;;;;21.10;12.58;;;;;;;17.46;75.37;101470.21;1853883;77;21438;-81
2021/09/15 03:31:35;;;;;;;20.80;12.58;;;;;;;17.38;75.41;101472.17;1853803;77;20926;-81
2021/09/15 03:34:02;;;;;;;18.70;12.45;;;;;;;17.34;75.49;101471.22;1853890;77;20961;-81
2021/09/15 03:36:30;;;;;;;14.90;12.28;;;;;;;17.33;75.58;101465.13;1823560;77;20989;-80
2021/09/15 03:38:58;;;;;;;17.77;12.50;;;;;;;17.33;75.96;101474.79;1854125;77;21121;-80
2021/09/15 03:41:26;;;;;;;18.27;11.75;;;;;;;17.28;76.14;101475.66;1854002;77;20950;-80
2021/09/15 03:43:54;;;;;;;15.00;11.12;;;;;;;17.25;76.36;101479.37;1853772;77;20958;-80
2021/09/15 03:46:26;;;;;;;17.73;12.43;;;;;;;17.22;76.54;101478.30;1853947;77;21500;-80
2021/09/15 03:48:53;;;;;;;16.57;12.40;;;;;;;17.21;76.64;101485.81;1854030;77;21473;-80
2021/09/15 03:51:20;;;;;;;15.93;12.23;;;;;;;17.20;76.76;101481.51;1854154;77;21055;-80
2021/09/15 03:53:47;;;;;;;18.37;12.95;;;;;;;17.22;76.89;101484.86;1854230;77;20977;-81
2021/09/15 03:56:14;;;;;;;16.90;12.58;;;;;;;17.24;76.90;101483.41;1853912;77;21466;-81
2021/09/15 03:58:42;;;;;;;18.85;13.45;;;;;;;17.25;76.89;101479.84;1854016;77;21568;-81
2021/09/15 04:01:10;;;;;;;21.57;12.05;;;;;;;17.24;76.85;101485.56;1851049;77;21411;-81
2021/09/15 04:03:39;;;;;;;24.32;13.10;;;;;;;17.21;76.87;101490.22;1854245;77;20859;-86
2021/09/15 04:06:06;;;;;;;21.52;14.70;;;;;;;17.16;77.05;101498.95;1854115;77;21399;-79
2021/09/15 04:08:36;;;;;;;17.20;13.53;;;;;;;17.11;77.47;101501.09;1854139;77;21458;-89
2021/09/15 04:11:04;;;;;;;22.55;12.95;;;;;;;17.05;77.79;101494.55;1854669;77;21485;-84
2021/09/15 04:13:33;;;;;;;18.00;11.85;;;;;;;17.04;78.02;101498.63;1854240;77;20954;-83
2021/09/15 04:16:02;;;;;;;24.77;12.55;;;;;;;17.03;78.10;101500.41;1854198;77;21945;-85
2021/09/15 04:18:32;;;;;;;18.92;12.47;;;;;;;17.04;78.15;101501.25;1853839;77;20957;-80
2021/09/15 04:20:59;;;;;;;17.92;11.97;;;;;;;17.06;78.11;101508.03;1854010;77;21402;-81
2021/09/15 04:23:36;;;;;;;20.90;12.85;;;;;;;17.08;78.04;101505.27;1853703;77;20966;-86
2021/09/15 04:31:28;;;;;;;21.95;12.30;;;;;;;17.12;78.08;101521.96;1854001;77;21453;-77
2021/09/15 04:33:59;;;;;;;19.07;13.10;;;;;;;17.12;78.14;101527.68;1853994;77;20904;-85
2021/09/15 04:36:27;;;;;;;27.25;14.90;;;;;;;17.14;78.27;101521.83;1853488;77;20985;-83
2021/09/15 04:38:56;;;;;;;37.88;16.20;;;;;;;17.16;78.31;101523.86;1853941;77;21490;-85
2021/09/15 04:41:23;;;;;;;38.15;22.60;;;;;;;17.19;78.33;101528.86;1854343;77;21836;-84
2021/09/15 04:43:51;;;;;;;36.23;21.80;;;;;;;17.17;78.18;101526.83;1854077;77;20954;-82
2021/09/15 04:46:19;;;;;;;36.03;21.05;;;;;;;17.16;78.06;101529.95;1853728;77;20899;-81
2021/09/15 04:48:46;;;;;;;35.33;18.42;;;;;;;17.19;77.88;101532.80;1853891;77;21010;-88
2021/09/15 04:51:13;;;;;;;30.20;19.23;;;;;;;17.24;77.83;101542.44;1853807;77;20938;-82
2021/09/15 04:53:42;;;;;;;28.83;18.02;;;;;;;17.27;77.80;101542.19;1853871;77;21081;-84
2021/09/15 04:56:10;;;;;;;26.27;17.77;;;;;;;17.30;77.82;101550.65;1853932;77;20812;-82
2021/09/15 04:58:39;;;;;;;29.50;20.15;;;;;;;17.31;77.83;101551.02;1854014;77;20864;-85
2021/09/15 05:01:06;;;;;;;32.95;17.65;;;;;;;17.33;77.82;101548.25;1853976;77;21515;-88
2021/09/15 05:03:34;;;;;;;28.38;17.17;;;;;;;17.34;77.86;101553.39;1823434;77;20990;-86
2021/09/15 05:06:02;;;;;;;26.45;16.80;;;;;;;17.38;77.98;101551.36;1853821;77;21087;-85
2021/09/15 05:08:30;;;;;;;32.73;16.90;;;;;;;17.42;78.13;101550.97;1853705;77;20943;-85
2021/09/15 05:10:58;;;;;;;26.68;14.60;;;;;;;17.48;78.30;101552.77;1854156;76;20919;-86
2021/09/15 05:13:26;;;;;;;49.90;16.52;;;;;;;17.52;78.30;101555.00;1854028;77;21529;-84
2021/09/15 05:15:54;;;;;;;37.55;14.73;;;;;;;17.56;78.23;101553.83;1853971;77;21485;-82
2021/09/15 05:18:23;;;;;;;65.37;15.15;;;;;;;17.61;78.13;101549.54;1853659;77;20934;-84
2021/09/15 05:20:53;;;;;;;27.37;13.90;;;;;;;17.66;78.02;101553.92;1853924;76;21509;-86
2021/09/15 05:23:21;;;;;;;25.57;13.75;;;;;;;17.74;78.03;101549.70;1854143;77;20958;-83
2021/09/15 05:25:52;;;;;;;22.55;13.22;;;;;;;17.82;77.94;101550.39;1854152;77;21686;-82
2021/09/15 05:28:19;;;;;;;23.18;13.03;;;;;;;17.92;77.89;101553.94;1827477;76;20902;-81
2021/09/15 05:30:48;;;;;;;30.68;13.32;;;;;;;18.03;77.90;101551.74;1818814;77;21980;-80
2021/09/15 05:33:15;;;;;;;23.83;12.60;;;;;;;18.12;77.80;101559.69;1782969;80;21113;-80
2021/09/15 05:35:46;;;;;;;25.08;12.53;;;;;;;18.23;77.68;101553.52;1764965;81;21045;-82
2021/09/15 05:38:16;;;;;;;24.30;12.95;;;;;;;18.33;77.49;101552.63;1790611;77;20911;-80
2021/09/15 05:40:44;;;;;;;24.47;12.98;;;;;;;18.46;77.22;101556.36;1819176;78;20918;-81
2021/09/15 05:43:12;;;;;;;23.95;12.78;;;;;;;18.58;76.93;101559.28;1784686;80;21138;-82
2021/09/15 05:45:40;;;;;;;29.57;13.80;;;;;;;18.71;76.60;101566.95;1765620;81;20863;-80
2021/09/15 05:48:08;;;;;;;21.80;13.35;;;;;;;18.82;76.30;101567.72;1765903;81;20871;-83
2021/09/15 05:50:37;;;;;;;23.05;12.15;;;;;;;18.95;75.99;101570.92;1765677;81;20962;-83
2021/09/15 05:53:04;;;;;;;24.65;11.60;;;;;;;19.10;75.56;101576.67;1765579;81;20993;-83
2021/09/15 05:55:32;;;;;;;36.58;13.43;;;;;;;19.24;75.07;101580.73;1764894;80;21678;-83
2021/09/15 05:58:00;;;;;;;20.72;11.43;;;;;;;19.40;74.01;101581.08;1766628;79;21030;-83
2021/09/15 06:00:27;;;;;;;25.97;11.68;;;;;;;19.59;72.88;101578.96;1777822;78;20953;-81
2021/09/15 06:02:57;;;;;;;24.77;11.70;;;;;;;19.77;72.19;101580.77;1835291;76;20917;-83
2021/09/15 06:05:26;;;;;;;29.27;11.08;;;;;;;19.97;71.67;101581.61;1818166;76;21491;-83
2021/09/15 06:07:53;;;;;;;20.68;11.12;;;;;;;20.17;70.90;101577.97;1853859;77;21136;-82
2021/09/15 06:10:25;;;;;;;27.42;11.50;;;;;;;20.37;69.68;101579.64;1853501;76;20987;-82
2021/09/15 06:12:58;;;;;;;19.77;11.30;;;;;;;20.58;68.31;101583.41;1854063;77;20966;-84
2021/09/15 06:15:26;;;;;;;;;;;;;;;20.79;67.30;101583.19;1854205;76;21029;-84
2021/09/15 06:17:56;;;;;;;24.10;11.95;;;;;;;20.96;66.29;101579.28;1822072;76;20425;-82
2021/09/15 06:20:23;;;;;;;37.28;12.63;;;;;;;21.13;65.50;101576.88;1793878;78;21110;-81
2021/09/15 06:22:54;;;;;;;19.23;10.93;;;;;;;21.28;64.96;101583.34;1826392;76;21552;-83
2021/09/15 06:25:24;;;;;;;15.15;10.48;;;;;;;21.43;64.28;101582.69;1817118;77;21045;-82
2021/09/15 06:27:55;;;;;;;22.45;9.70;;;;;;;21.57;63.26;101583.47;1821140;77;20930;-81
2021/09/15 06:30:22;;;;;;;16.02;9.40;;;;;;;21.66;62.40;101583.09;1821459;78;20950;-84
2021/09/15 06:32:51;;;;;;;23.67;11.35;;;;;;;21.76;61.76;101580.38;1821336;78;21138;-84
2021/09/15 06:35:22;;;;;;;20.57;9.80;;;;;;;21.83;61.13;101586.69;1820246;77;20954;-83
2021/09/15 06:37:49;;;;;;;18.20;10.82;;;;;;;21.87;60.82;101587.56;1837089;77;21024;-83
2021/09/15 06:40:16;;;;;;;21.42;9.93;;;;;;;21.92;60.26;101587.16;1842106;77;20893;-83
2021/09/15 06:42:42;;;;;;;24.95;10.93;;;;;;;21.97;59.80;101583.55;1819722;78;21046;-85
2021/09/15 06:45:11;;;;;;;19.52;11.18;;;;;;;22.05;59.68;101590.21;1819700;78;21078;-82
2021/09/15 06:47:44;;;;;;;17.95;10.25;;;;;;;22.12;59.21;101586.81;1819745;77;20979;-83
2021/09/15 06:50:13;;;;;;;17.50;10.80;;;;;;;22.19;59.27;101585.71;1823549;76;21530;-84
2021/09/15 06:52:43;;;;;;;18.85;9.78;;;;;;;22.26;58.99;101589.41;1849023;76;20970;-82
2021/09/15 06:55:11;;;;;;;28.95;10.90;;;;;;;22.32;58.90;101585.30;1836173;76;21022;-82
2021/09/15 06:57:41;;;;;;;17.65;10.75;;;;;;;22.42;58.81;101590.84;1834353;76;21240;-85
2021/09/15 07:00:22;;;;;;;27.42;11.97;;;;;;;22.48;58.68;101588.89;1823749;77;20999;-86
2021/09/15 07:02:58;;;;;;;24.43;11.50;;;;;;;22.54;58.32;101579.01;1817337;77;21041;-85
2021/09/15 07:05:27;;;;;;;24.47;11.80;;;;;;;22.58;57.96;101581.69;1779119;78;20982;-84
2021/09/15 07:08:01;;;;;;;12.65;9.13;;;;;;;22.63;57.92;101581.20;1759897;80;21111;-83
2021/09/15 07:10:31;;;;;;;14.83;9.55;;;;;;;22.65;57.17;101583.21;1766625;77;21044;-82
2021/09/15 07:13:02;;;;;;;15.10;9.63;;;;;;;22.69;57.23;101579.80;1775684;79;21043;-80
2021/09/15 07:15:33;;;;;;;13.67;10.17;;;;;;;22.77;56.63;101584.62;1784210;79;21087;-80
2021/09/15 07:18:01;;;;;;;17.30;9.65;;;;;;;22.84;56.41;101585.66;1785084;79;21076;-83
2021/09/15 07:20:30;;;;;;;14.63;9.70;;;;;;;22.95;56.57;101585.36;1783585;78;21200;-81
2021/09/15 07:22:57;;;;;;;20.97;10.40;;;;;;;23.04;56.11;101586.22;1781113;79;21101;-85
2021/09/15 07:25:25;;;;;;;13.88;10.00;;;;;;;23.05;55.05;101585.23;1785614;79;21016;-83
2021/09/15 07:27:58;;;;;;;20.40;9.83;;;;;;;23.07;55.22;101584.61;1766489;81;21661;-84
2021/09/15 07:30:26;;;;;;;20.32;10.10;;;;;;;23.14;55.45;101581.63;1767463;81;21057;-81
2021/09/15 07:32:53;;;;;;;25.97;10.63;;;;;;;23.27;55.67;101583.33;1766979;81;21136;-85
2021/09/15 07:35:22;;;;;;;24.92;11.38;;;;;;;23.38;54.46;101580.89;1767359;81;21068;-83
2021/09/15 07:37:50;;;;;;;28.57;11.43;;;;;;;23.40;53.88;101580.25;1766852;79;21607;-81
2021/09/15 07:40:18;;;;;;;32.50;12.05;;;;;;;23.45;54.13;101581.94;1766919;81;21104;-82
2021/09/15 07:42:47;;;;;;;31.82;11.30;;;;;;;23.53;53.71;101579.28;1774384;79;21065;-83
2021/09/15 07:45:15;;;;;;;33.80;11.75;;;;;;;23.58;53.04;101574.34;1799092;79;20981;-82
2021/09/15 07:47:42;;;;;;;35.73;11.93;;;;;;;23.60;53.10;101580.30;1783455;79;21090;-82
2021/09/15 07:50:10;;;;;;;31.33;10.93;;;;;;;23.70;53.53;101582.30;1783897;79;21753;-81
2021/09/15 07:52:38;;;;;;;30.30;10.75;;;;;;;23.82;53.23;101577.50;1768147;79;20984;-81
2021/09/15 07:55:09;;;;;;;35.33;11.22;;;;;;;23.92;52.69;101573.70;1800069;79;21071;-84
2021/09/15 07:57:39;;;;;;;21.25;10.63;;;;;;;24.01;52.51;101573.20;1800311;79;21080;-85
2021/09/15 08:00:12;;;;;;;26.02;10.95;;;;;;;24.06;52.48;101566.39;1763000;79;21176;-85
2021/09/15 08:02:42;;;;;;;33.20;11.35;;;;;;;24.14;52.61;101568.25;1786967;79;21165;-83
2021/09/15 08:05:09;;;;;;;30.72;10.65;;;;;;;24.22;52.18;101565.08;1775349;79;21028;-85
2021/09/15 08:07:37;;;;;;;32.45;11.55;;;;;;;24.30;52.08;101566.07;1789815;78;21116;-84
2021/09/15 08:10:05;;;;;;;20.75;10.18;;;;;;;24.36;52.20;101565.39;1824164;77;21361;-85
2021/09/15 08:12:44;;;;;;;20.95;10.32;;;;;;;24.41;51.71;101556.45;1793622;77;21960;-85
2021/09/15 08:15:23;;;;;;;15.28;9.75;;;;;;;24.43;51.57;101567.22;1830006;77;21403;-83
2021/09/15 08:17:51;;;;;;;18.90;9.98;;;;;;;24.42;51.09;101555.43;1839455;77;20985;-82
2021/09/15 08:20:18;;;;;;;23.90;11.10;;;;;;;24.39;51.15;101556.61;1834449;76;21021;-83
2021/09/15 08:23:07;;;;;;;16.37;9.85;;;;;;;24.38;51.33;101559.44;1824725;77;21185;-85
2021/09/15 08:25:39;;;;;;;19.62;9.95;;;;;;;24.36;51.25;101562.74;1826708;76;21041;-80
2021/09/15 08:28:12;;;;;;;;;;;;;;;24.33;51.71;101557.28;1830918;76;21618;-86
2021/09/15 08:30:41;;;;;;;14.05;10.28;;;;;;;24.36;51.83;101551.64;1838599;76;20192;-80
2021/09/15 08:33:24;;;;;;;20.62;9.15;;;;;;;24.39;51.44;101551.30;1830649;76;21126;-86
2021/09/15 08:35:53;;;;;;;13.68;8.65;;;;;;;24.45;51.36;101549.78;1819324;78;21043;-81
2021/09/15 08:38:21;;;;;;;20.72;11.12;;;;;;;24.51;50.78;101545.95;1819167;77;21108;-85
2021/09/15 08:40:59;;;;;;;20.97;10.18;;;;;;;24.57;50.85;101553.23;1829831;76;20980;-81
2021/09/15 08:43:26;;;;;;;14.98;8.78;;;;;;;24.60;50.56;101544.12;1741030;78;21108;-83
2021/09/15 08:45:56;;;;;;;18.25;9.50;;;;;;;24.68;50.53;101544.08;1734957;81;21025;-81
2021/09/15 08:48:23;;;;;;;16.32;9.25;;;;;;;24.74;50.20;101544.22;1764431;80;21024;-80
2021/09/15 08:50:51;;;;;;;19.65;10.28;;;;;;;24.80;49.81;101546.69;1735482;81;21559;-79
2021/09/15 08:53:22;;;;;;;15.25;9.33;;;;;;;24.82;49.79;101543.41;1765244;81;20984;-82
2021/09/15 08:55:56;;;;;;;13.65;9.58;;;;;;;24.89;49.71;101546.20;1765771;79;21008;-84
2021/09/15 08:58:26;;;;;;;15.55;9.38;;;;;;;24.98;49.25;101549.98;1747905;81;21102;-81
2021/09/15 09:01:24;;;;;;;12.03;9.08;;;;;;;25.06;48.79;101543.28;1760211;80;21045;-82
2021/09/15 09:03:58;;;;;;;18.87;9.35;;;;;;;25.09;48.24;101538.95;1765051;80;21271;-83
2021/09/15 09:06:33;;;;;;;13.90;9.70;;;;;;;25.16;48.61;101542.56;1765102;80;20984;-81
2021/09/15 09:09:05;;;;;;;12.78;8.83;;;;;;;25.25;47.58;101537.53;1764284;79;21163;-82
2021/09/15 09:11:35;;;;;;;15.75;9.10;;;;;;;25.33;47.28;101543.80;1765795;80;20989;-83
2021/09/15 09:14:07;;;;;;;11.00;8.38;;;;;;;25.40;47.12;101540.25;1765833;80;21084;-85
2021/09/15 09:16:49;;;;;;;12.35;8.70;;;;;;;25.49;47.08;101539.25;1765666;81;20961;-83
2021/09/15 09:19:28;;;;;;;14.60;9.38;;;;;;;25.61;47.08;101540.98;1765090;81;20995;-85
2021/09/15 09:22:00;;;;;;;9.85;8.13;;;;;;;25.75;46.94;101531.70;1768627;79;21560;-83
2021/09/15 09:24:28;;;;;;;16.42;8.40;;;;;;;25.84;46.58;101532.98;1734065;81;21032;-82
2021/09/15 09:27:03;;;;;;;14.33;8.25;;;;;;;25.91;46.42;101531.27;1768966;81;20885;-78
2021/09/15 09:29:36;;;;;;;8.38;7.20;;;;;;;26.02;45.66;101522.84;1734966;81;21546;-79
2021/09/15 09:32:11;;;;;;;8.85;7.58;;;;;;;26.12;45.20;101524.73;1768964;80;21032;-84
2021/09/15 09:35:04;;;;;;;11.83;7.95;;;;;;;26.17;45.02;101522.38;1734216;81;21781;-81
2021/09/15 09:37:34;;;;;;;12.33;7.62;;;;;;;26.24;45.32;101525.97;1768289;81;20976;-81
2021/09/15 09:40:04;;;;;;;19.10;7.90;;;;;;;26.41;44.99;101519.48;1737157;81;21150;-83
2021/09/15 09:42:40;;;;;;;11.25;6.50;;;;;;;27.18;43.81;101522.52;1800728;79;21834;-81
2021/09/15 09:45:16;;;;;;;13.80;6.80;;;;;;;28.36;40.92;101515.56;1764705;80;20978;-82
2021/09/15 09:47:52;;;;;;;14.47;6.95;;;;;;;29.74;38.96;101514.16;1800900;79;22235;-83
2021/09/15 09:50:23;;;;;;;15.68;6.75;;;;;;;31.15;36.31;101509.38;1764622;81;21425;-80
2021/09/15 09:53:00;;;;;;;14.28;6.37;;;;;;;32.31;33.97;101504.33;1798427;79;21080;-82
2021/09/15 09:55:36;;;;;;;12.63;6.78;;;;;;;33.28;32.48;101506.02;1725679;81;21113;-83
2021/09/15 09:58:07;;;;;;;10.75;5.05;;;;;;;34.12;30.40;101508.87;1761775;80;20992;-84
2021/09/15 10:00:45;;;;;;;7.17;5.05;;;;;;;34.91;28.47;101513.52;1699076;82;21131;-80
2021/09/15 10:03:09;;;;;;;10.80;6.12;;;;;;;35.40;27.57;101504.70;1743719;81;21035;-80
2021/09/15 10:05:58;;;;;;;18.95;6.53;;;;;;;35.97;27.16;101506.69;1735550;80;20993;-81
2021/09/15 10:08:33;;;;;;;17.10;6.70;;;;;;;37.03;25.98;101501.30;1707921;81;21214;-83
2021/09/15 10:14:24;;;;;;;9.80;5.95;;;;;;;38.98;23.81;101495.17;1786951;75;21157;-83
2021/09/15 10:17:37;;;;;;;6.45;5.00;;;;;;;39.51;22.83;101501.98;1725361;82;21053;-82
2021/09/15 10:20:55;;;;;;;9.43;5.08;;;;;;;40.02;21.83;101499.19;1707050;75;21022;-82
2021/09/15 10:23:54;;;;;;;8.00;4.70;;;;;;;40.16;21.37;101498.37;1722660;83;21141;-85
2021/09/15 10:26:45;;;;;;;5.30;4.40;;;;;;;40.10;20.90;101498.13;1725463;78;21011;-82
2021/09/15 10:29:46;;;;;;;7.55;5.30;;;;;;;39.96;20.45;101494.32;1756516;79;21002;-86
2021/09/15 10:32:39;;;;;;;6.53;4.35;;;;;;;38.78;21.37;101495.09;1722882;79;23093;-80
2021/09/15 10:35:46;;;;;;;8.23;5.20;;;;;;;37.42;23.16;101486.20;1723549;83;21050;-82
2021/09/15 10:38:17;;;;;;;10.60;5.97;;;;;;;36.59;24.71;101488.38;1722292;83;21094;-83
2021/09/15 10:40:44;;;;;;;6.78;5.05;;;;;;;35.73;25.30;101490.94;1753188;81;21085;-82
2021/09/15 10:43:42;;;;;;;5.10;4.67;;;;;;;34.89;26.11;101478.68;1753279;81;21571;-83
2021/09/15 10:46:20;;;;;;;8.53;5.58;;;;;;;34.20;26.44;101482.41;1752963;81;21513;-82
2021/09/15 10:49:09;;;;;;;6.12;4.92;;;;;;;33.51;27.80;101478.60;1723062;83;21141;-80
2021/09/15 10:51:36;;;;;;;7.87;5.58;;;;;;;33.32;28.18;101476.23;1706414;83;21095;-80
2021/09/15 10:54:25;;;;;;;7.83;5.37;;;;;;;33.07;28.96;101479.06;1721083;83;20995;-80
2021/09/15 10:57:29;;;;;;;6.47;4.95;;;;;;;32.70;29.86;101472.98;1706552;83;21549;-83
2021/09/15 11:00:01;;;;;;;7.10;4.85;;;;;;;32.35;30.09;101472.77;1721495;83;21043;-84
2021/09/15 11:02:35;;;;;;;6.97;5.47;;;;;;;31.82;30.53;101473.80;1721366;82;21086;-83
2021/09/15 11:05:30;;;;;;;9.10;6.25;;;;;;;31.28;31.83;101471.75;1721023;82;21146;-82
2021/09/15 11:08:06;;;;;;;15.20;6.30;;;;;;;30.91;32.78;101467.23;1720304;83;20971;-83
2021/09/15 11:10:39;;;;;;;9.43;6.70;;;;;;;30.67;34.36;101466.62;1719731;82;21596;-82
2021/09/15 11:13:33;;;;;;;17.37;5.90;;;;;;;30.38;34.63;101459.39;1719899;82;21804;-80
2021/09/15 11:16:29;;;;;;;6.17;5.20;;;;;;;30.12;34.60;101458.67;1719890;82;21027;-84
2021/09/15 11:19:14;;;;;;;11.73;5.80;;;;;;;29.81;35.37;101454.77;1722666;81;21150;-79
2021/09/15 11:21:55;;;;;;;13.83;6.10;;;;;;;29.48;36.07;101453.16;1721114;83;21592;-81
2021/09/15 11:24:27;;;;;;;8.78;5.90;;;;;;;29.14;36.32;101454.94;1722886;81;21062;-83
2021/09/15 11:26:59;;;;;;;7.97;6.15;;;;;;;28.95;36.85;101453.56;1750840;80;21064;-83
2021/09/15 11:29:43;;;;;;;5.80;5.20;;;;;;;28.73;37.51;101451.55;1751456;81;21132;-81
2021/09/15 11:32:25;;;;;;;10.00;6.00;;;;;;;28.55;37.37;101445.41;1721019;82;21150;-81
2021/09/15 11:34:55;;;;;;;8.90;5.78;;;;;;;28.65;37.36;101439.70;1736998;81;21007;-80
2021/09/15 11:37:29;;;;;;;9.30;5.50;;;;;;;28.94;37.02;101440.73;1684926;83;21065;-82
2021/09/15 11:40:04;;;;;;;9.65;5.67;;;;;;;29.14;36.36;101430.88;1714372;82;20999;-80
2021/09/15 11:42:35;;;;;;;8.28;5.75;;;;;;;29.35;36.16;101426.73;1714118;82;21045;-79
2021/09/15 11:45:18;;;;;;;7.72;5.30;;;;;;;29.40;35.88;101425.59;1713882;82;21537;-85